createdAt,value
2023-01-12T00:02:10.625Z,4.22
2023-01-12T00:04:38.500Z,5.03
2023-01-12T00:07:10.495Z,3.75
2023-01-12T00:09:38.657Z,4.45
2023-01-12T00:12:08.713Z,3.80
2023-01-12T00:14:37.655Z,4.30
2023-01-12T00:17:06.618Z,4.75
2023-01-12T00:19:34.458Z,5.55
2023-01-12T00:22:06.039Z,4.47
2023-01-12T00:24:39.025Z,2.65
2023-01-12T00:27:11.357Z,3.97
2023-01-12T00:30:05.811Z,4.28
2023-01-12T00:32:33.420Z,3.38
2023-01-12T00:35:00.813Z,4.85
2023-01-12T00:40:31.217Z,3.55
2023-01-12T00:43:19.548Z,3.70
2023-01-12T00:45:51.351Z,4.15
2023-01-12T00:48:19.004Z,4.75
2023-01-12T00:50:47.600Z,4.63
2023-01-12T00:53:47.409Z,3.55
2023-01-12T00:56:15.156Z,4.60
2023-01-12T00:58:52.894Z,4.72
2023-01-12T01:17:39.257Z,4.15
2023-01-12T01:20:06.962Z,2.85
2023-01-12T01:28:57.560Z,3.80
2023-01-12T01:31:39.652Z,2.40
2023-01-12T01:43:47.594Z,2.97
2023-01-12T01:55:52.874Z,3.40
2023-01-12T02:14:20.996Z,3.00
2023-01-12T02:20:01.275Z,3.13
2023-01-12T02:26:04.693Z,4.40
2023-01-12T02:37:59.084Z,4.35
2023-01-12T02:46:33.541Z,3.80
2023-01-12T02:52:25.589Z,4.45
2023-01-12T02:54:54.657Z,3.90
2023-01-12T02:57:24.848Z,3.92
2023-01-12T02:59:53.440Z,3.10
2023-01-12T03:02:23.236Z,3.78
2023-01-12T03:04:50.423Z,4.53
2023-01-12T03:07:49.028Z,4.65
2023-01-12T03:10:33.676Z,4.45
2023-01-12T03:13:09.832Z,3.72
2023-01-12T03:15:41.872Z,4.53
2023-01-12T03:18:28.816Z,3.85
2023-01-12T03:21:13.708Z,4.07
2023-01-12T03:23:53.992Z,4.15
2023-01-12T03:26:27.937Z,3.35
2023-01-12T03:31:27.290Z,2.67
2023-01-12T03:33:55.124Z,3.88
2023-01-12T03:36:44.879Z,3.58
2023-01-12T03:39:43.895Z,3.40
2023-01-12T03:42:14.121Z,3.10
2023-01-12T03:44:45.286Z,3.60
2023-01-12T03:47:27.198Z,3.75
2023-01-12T03:50:07.238Z,3.17
2023-01-12T03:52:38.549Z,3.10
2023-01-12T03:55:17.570Z,3.28
2023-01-12T03:57:46.690Z,2.97
2023-01-12T04:03:12.318Z,3.53
2023-01-12T04:08:48.790Z,3.88
2023-01-12T04:11:42.420Z,3.25
2023-01-12T04:14:27.891Z,3.67
2023-01-12T04:17:25.647Z,3.65
2023-01-12T04:19:53.125Z,3.33
2023-01-12T04:25:20.341Z,3.42
2023-01-12T04:34:23.974Z,3.17
2023-01-12T04:39:59.193Z,3.47
2023-01-12T04:54:14.352Z,3.60
2023-01-12T05:13:02.675Z,3.08
2023-01-12T05:15:33.209Z,3.20
2023-01-12T05:18:00.620Z,2.25
2023-01-12T05:29:46.248Z,2.72
2023-01-12T05:38:29.775Z,2.17
2023-01-12T05:54:00.490Z,2.38
2023-01-12T06:30:59.376Z,2.70
2023-01-12T06:33:27.810Z,2.45
2023-01-12T06:39:11.944Z,2.60
2023-01-12T07:25:59.103Z,2.25
2023-01-12T07:28:26.551Z,2.63
2023-01-12T07:30:58.871Z,2.38
2023-01-12T07:36:42.514Z,1.70
2023-01-12T07:42:23.818Z,1.73
2023-01-12T07:44:52.173Z,2.00
2023-01-12T07:47:19.816Z,2.65
2023-01-12T07:49:47.191Z,2.38
2023-01-12T07:52:17.104Z,2.30
2023-01-12T07:54:44.381Z,1.80
2023-01-12T07:57:12.509Z,3.05
2023-01-12T07:59:39.995Z,4.88
2023-01-12T08:02:11.020Z,2.70
2023-01-12T08:05:05.484Z,2.45
2023-01-12T08:07:33.449Z,2.17
2023-01-12T08:12:53.294Z,2.53
2023-01-12T08:21:58.053Z,2.33
2023-01-12T08:24:34.092Z,2.17
2023-01-12T08:27:04.969Z,1.95
2023-01-12T08:29:44.762Z,1.92
2023-01-12T08:32:14.101Z,2.00
2023-01-12T08:34:43.927Z,1.58
2023-01-12T08:37:14.399Z,2.10
2023-01-12T08:39:43.205Z,2.30
2023-01-12T08:42:10.542Z,1.65
2023-01-12T08:44:37.921Z,1.60
2023-01-12T08:47:23.476Z,1.55
2023-01-12T08:49:50.714Z,2.10
2023-01-12T08:52:18.156Z,1.50
2023-01-12T08:54:46.973Z,1.80
2023-01-12T08:57:17.266Z,1.35
2023-01-12T08:59:44.482Z,1.70
2023-01-12T09:02:13.083Z,1.80
2023-01-12T09:04:40.861Z,2.05
2023-01-12T09:07:09.595Z,1.40
2023-01-12T09:09:37.415Z,1.92
2023-01-12T09:12:04.990Z,1.80
2023-01-12T09:14:38.558Z,1.40
2023-01-12T09:17:06.990Z,1.75
2023-01-12T09:19:34.390Z,1.55
2023-01-12T09:22:02.231Z,1.70
2023-01-12T09:24:29.343Z,1.95
2023-01-12T09:26:56.668Z,1.92
2023-01-12T09:29:29.923Z,1.38
2023-01-12T09:32:00.793Z,1.63
2023-01-12T09:34:27.971Z,2.08
2023-01-12T09:36:56.795Z,1.90
2023-01-12T09:39:27.825Z,2.20
2023-01-12T09:42:14.871Z,1.77
2023-01-12T09:45:02.810Z,2.65
2023-01-12T09:47:48.297Z,2.22
2023-01-12T09:50:15.763Z,2.03
2023-01-12T09:52:54.847Z,1.83
2023-01-12T09:55:31.035Z,2.17
2023-01-12T09:58:27.714Z,2.00
2023-01-12T10:00:57.268Z,2.40
2023-01-12T10:03:38.495Z,3.20
2023-01-12T10:06:07.037Z,2.60
2023-01-12T10:08:55.122Z,2.55
2023-01-12T10:11:25.211Z,2.45
2023-01-12T10:14:19.981Z,2.95
2023-01-12T10:16:49.855Z,1.98
2023-01-12T10:19:40.032Z,1.90
2023-01-12T10:22:56.861Z,2.60
2023-01-12T10:25:27.542Z,1.85
2023-01-12T10:27:57.167Z,2.15
2023-01-12T10:30:36.996Z,1.75
2023-01-12T10:33:26.766Z,1.75
2023-01-12T10:36:05.619Z,1.83
2023-01-12T10:38:37.605Z,2.13
2023-01-12T10:41:10.914Z,1.63
2023-01-12T10:43:40.194Z,2.20
2023-01-12T10:46:14.834Z,1.95
2023-01-12T10:48:54.261Z,1.42
2023-01-12T10:51:34.710Z,1.70
2023-01-12T10:54:17.864Z,1.60
2023-01-12T10:57:08.783Z,1.48
2023-01-12T10:59:39.260Z,1.65
2023-01-12T11:02:09.488Z,1.70
2023-01-12T11:04:49.049Z,1.60
2023-01-12T11:07:40.255Z,1.90
2023-01-12T11:10:35.823Z,1.95
2023-01-12T11:13:05.965Z,1.85
2023-01-12T11:15:39.087Z,1.58
2023-01-12T11:18:27.528Z,1.65
2023-01-12T11:21:06.525Z,1.45
2023-01-12T11:23:40.696Z,1.30
2023-01-12T11:26:19.132Z,1.63
2023-01-12T11:28:51.001Z,1.30
2023-01-12T11:31:40.005Z,1.75
2023-01-12T11:34:19.344Z,1.60
2023-01-12T11:36:52.126Z,1.50
2023-01-12T11:39:27.877Z,1.38
2023-01-12T11:42:17.736Z,1.70
2023-01-12T11:45:03.530Z,1.13
2023-01-12T11:47:41.816Z,1.60
2023-01-12T11:50:24.906Z,1.60
2023-01-12T11:52:53.016Z,1.50
2023-01-12T11:56:03.575Z,2.13
2023-01-12T11:58:51.773Z,1.85
2023-01-12T12:01:26.920Z,2.72
2023-01-12T12:04:04.361Z,2.03
2023-01-12T12:07:02.367Z,1.83
2023-01-12T12:09:47.832Z,2.22
2023-01-12T12:12:43.845Z,2.10
2023-01-12T12:15:33.252Z,2.05
2023-01-12T12:18:27.732Z,2.00
2023-01-12T12:21:04.367Z,2.15
2023-01-12T12:23:49.370Z,2.42
2023-01-12T12:26:36.200Z,2.00
2023-01-12T12:29:15.234Z,2.10
2023-01-12T12:32:06.550Z,2.20
2023-01-12T12:34:36.273Z,1.77
2023-01-12T12:37:38.943Z,1.83
2023-01-12T12:40:05.992Z,2.10
2023-01-12T12:43:19.751Z,1.77
2023-01-12T12:46:05.586Z,1.80
2023-01-12T12:48:44.009Z,1.80
2023-01-12T12:51:13.120Z,1.60
2023-01-12T12:53:43.621Z,1.88
2023-01-12T12:56:14.420Z,2.25
2023-01-12T12:58:41.499Z,1.88
2023-01-12T13:01:21.114Z,1.60
2023-01-12T13:03:51.271Z,1.33
2023-01-12T13:06:31.520Z,1.48
2023-01-12T13:09:05.708Z,1.67
2023-01-12T13:11:53.804Z,1.98
2023-01-12T13:14:32.809Z,1.50
2023-01-12T13:17:18.653Z,1.20
2023-01-12T13:20:08.549Z,1.13
2023-01-12T13:22:48.859Z,1.30
2023-01-12T13:25:23.852Z,1.40
2023-01-12T13:28:01.548Z,1.65
2023-01-12T13:30:31.467Z,1.30
2023-01-12T13:33:14.723Z,1.75
2023-01-12T13:35:44.679Z,1.60
2023-01-12T13:38:50.586Z,1.23
2023-01-12T13:41:44.314Z,1.55
2023-01-12T13:44:21.060Z,1.40
2023-01-12T13:46:52.233Z,2.00
2023-01-12T13:49:34.851Z,1.30
2023-01-12T13:52:09.885Z,1.60
2023-01-12T13:54:49.351Z,1.40
2023-01-12T13:57:22.685Z,1.55
2023-01-12T14:00:14.243Z,1.58
2023-01-12T14:02:42.220Z,1.75
2023-01-12T14:05:21.525Z,1.77
2023-01-12T14:07:55.880Z,1.80
2023-01-12T14:10:43.689Z,1.52
2023-01-12T14:13:37.497Z,1.42
2023-01-12T14:16:34.224Z,1.60
2023-01-12T14:19:01.946Z,1.80
2023-01-12T14:21:34.870Z,1.45
2023-01-12T14:24:22.390Z,1.52
2023-01-12T14:26:49.544Z,1.40
2023-01-12T14:29:16.671Z,1.33
2023-01-12T14:31:48.694Z,1.45
2023-01-12T14:34:28.354Z,1.48
2023-01-12T14:36:56.404Z,1.50
2023-01-12T14:39:26.740Z,1.25
2023-01-12T14:42:14.928Z,1.23
2023-01-12T14:45:14.326Z,1.40
2023-01-12T14:47:42.206Z,1.75
2023-01-12T14:50:19.773Z,1.58
2023-01-12T14:52:48.390Z,1.55
2023-01-12T14:55:27.052Z,1.58
2023-01-12T14:58:00.841Z,1.38
2023-01-12T15:00:31.464Z,1.55
2023-01-12T15:03:01.055Z,1.73
2023-01-12T15:05:30.193Z,1.25
2023-01-12T15:08:04.643Z,1.38
2023-01-12T15:10:35.081Z,1.40
2023-01-12T15:13:24.178Z,1.48
2023-01-12T15:16:10.811Z,1.13
2023-01-12T15:18:56.850Z,1.23
2023-01-12T15:21:46.365Z,1.20
2023-01-12T15:24:40.812Z,1.30
2023-01-12T15:27:09.206Z,1.08
2023-01-12T15:29:37.568Z,1.23
2023-01-12T15:32:12.011Z,1.20
2023-01-12T15:34:39.120Z,1.20
2023-01-12T15:37:06.205Z,1.20
2023-01-12T15:39:33.303Z,0.90
2023-01-12T15:42:18.331Z,1.17
2023-01-12T15:44:46.629Z,1.00
2023-01-12T15:47:18.439Z,1.33
2023-01-12T15:49:48.802Z,1.13
2023-01-12T15:52:22.080Z,1.23
2023-01-12T15:54:49.410Z,1.90
2023-01-12T15:57:17.692Z,1.20
2023-01-12T15:59:45.063Z,1.10
2023-01-12T16:02:27.623Z,1.00
2023-01-12T16:04:54.957Z,1.20
2023-01-12T16:07:22.098Z,0.98
2023-01-12T16:09:50.812Z,0.90
2023-01-12T16:12:18.282Z,1.27
2023-01-12T16:14:45.538Z,1.73
2023-01-12T16:17:12.537Z,1.52
2023-01-12T16:19:42.550Z,1.52
2023-01-12T16:22:30.680Z,1.70
2023-01-12T16:24:57.741Z,1.70
2023-01-12T16:27:26.293Z,1.70
2023-01-12T16:29:53.726Z,1.90
2023-01-12T16:32:25.288Z,2.10
2023-01-12T16:34:52.767Z,2.05
2023-01-12T16:37:23.142Z,2.15
2023-01-12T16:39:50.268Z,2.17
2023-01-12T16:42:17.387Z,2.00
2023-01-12T16:44:44.909Z,1.92
2023-01-12T16:47:14.052Z,1.58
2023-01-12T16:49:41.806Z,2.35
2023-01-12T16:52:11.593Z,1.63
2023-01-12T16:54:42.576Z,2.22
2023-01-12T16:57:11.781Z,2.10
2023-01-12T16:59:39.425Z,2.80
2023-01-12T17:02:08.438Z,2.00
2023-01-12T17:04:37.801Z,2.10
2023-01-12T17:07:05.963Z,2.03
2023-01-12T17:09:37.768Z,2.53
2023-01-12T17:12:05.521Z,2.17
2023-01-12T17:14:34.761Z,2.22
2023-01-12T17:17:05.997Z,1.98
2023-01-12T17:19:35.435Z,1.90
2023-01-12T17:22:03.330Z,1.95
2023-01-12T17:24:32.045Z,1.90
2023-01-12T17:26:59.401Z,2.22
2023-01-12T17:29:27.793Z,1.80
2023-01-12T17:32:03.432Z,2.17
2023-01-12T17:34:33.099Z,2.20
2023-01-12T17:37:07.736Z,2.17
2023-01-12T17:39:43.032Z,2.25
2023-01-12T17:42:33.757Z,2.40
2023-01-12T17:45:01.480Z,2.40
2023-01-12T17:47:28.486Z,2.03
2023-01-12T17:49:55.705Z,2.17
2023-01-12T17:52:22.794Z,1.70
2023-01-12T17:54:49.871Z,2.58
2023-01-12T17:57:16.955Z,1.92
2023-01-12T17:59:44.733Z,2.38
2023-01-12T18:02:14.477Z,1.90
2023-01-12T18:04:41.686Z,2.10
2023-01-12T18:07:08.778Z,2.50
2023-01-12T18:09:37.039Z,2.70
2023-01-12T18:12:05.304Z,2.60
2023-01-12T18:14:32.482Z,2.38
2023-01-12T18:16:59.505Z,2.92
2023-01-12T18:19:26.589Z,3.00
2023-01-12T18:21:53.555Z,3.45
2023-01-12T18:24:20.566Z,2.42
2023-01-12T18:26:48.235Z,2.83
2023-01-12T18:29:15.175Z,2.75
2023-01-12T18:31:42.655Z,2.75
2023-01-12T18:34:11.002Z,2.88
2023-01-12T18:36:40.203Z,2.40
2023-01-12T18:39:11.172Z,2.42
2023-01-12T18:41:56.602Z,2.08
2023-01-12T18:44:24.836Z,2.42
2023-01-12T18:47:10.644Z,2.05
2023-01-12T18:49:39.712Z,2.53
2023-01-12T18:52:28.701Z,1.90
2023-01-12T18:54:55.910Z,2.22
2023-01-12T18:57:25.544Z,1.75
2023-01-12T19:00:10.169Z,1.80
2023-01-12T19:02:39.961Z,2.05
2023-01-12T19:05:22.386Z,2.00
2023-01-12T19:07:58.307Z,1.98
2023-01-12T19:10:27.025Z,1.48
2023-01-12T19:13:14.078Z,1.30
2023-01-12T19:16:00.299Z,1.95
2023-01-12T19:18:28.123Z,1.77
2023-01-12T19:21:15.072Z,2.78
2023-01-12T19:24:00.699Z,1.65
2023-01-12T19:26:46.139Z,1.20
2023-01-12T19:29:13.148Z,1.20
2023-01-12T19:31:40.182Z,1.40
2023-01-12T19:34:07.242Z,1.52
2023-01-12T19:36:34.176Z,1.40
2023-01-12T19:39:05.538Z,1.30
2023-01-12T19:41:52.154Z,1.33
2023-01-12T19:44:19.194Z,2.25
2023-01-12T19:46:46.174Z,1.50
2023-01-12T19:49:13.429Z,2.03
2023-01-12T19:51:40.446Z,2.85
2023-01-12T19:54:07.439Z,2.10
2023-01-12T19:56:34.415Z,2.03
2023-01-12T19:59:01.404Z,2.30
2023-01-12T20:01:29.314Z,1.80
2023-01-12T20:03:56.469Z,1.23
2023-01-12T20:06:24.869Z,1.42
2023-01-12T20:08:51.869Z,1.60
2023-01-12T20:11:18.853Z,1.35
2023-01-12T20:13:46.023Z,1.00
2023-01-12T20:16:13.172Z,1.60
2023-01-12T20:18:43.435Z,1.52
2023-01-12T20:21:11.863Z,1.63
2023-01-12T20:23:38.845Z,1.85
2023-01-12T20:26:08.023Z,1.42
2023-01-12T20:28:35.548Z,1.77
2023-01-12T20:31:09.443Z,1.90
2023-01-12T20:36:03.564Z,1.70
2023-01-12T20:38:30.772Z,1.67
2023-01-12T20:40:58.125Z,1.63
2023-01-12T20:43:25.107Z,1.30
2023-01-12T20:45:52.638Z,1.13
2023-01-12T20:48:19.664Z,0.88
2023-01-12T20:50:47.012Z,0.77
2023-01-12T20:53:15.127Z,0.70
2023-01-12T20:55:51.629Z,0.77
2023-01-12T20:58:19.111Z,0.80
2023-01-12T21:00:46.596Z,0.70
2023-01-12T21:03:14.651Z,0.68
2023-01-12T21:05:43.378Z,0.60
2023-01-12T21:08:10.802Z,0.90
2023-01-12T21:10:39.256Z,0.80
2023-01-12T21:13:07.168Z,0.80
2023-01-12T21:15:34.223Z,0.90
2023-01-12T21:18:01.233Z,0.88
2023-01-12T21:20:28.320Z,1.10
2023-01-12T21:22:55.520Z,1.15
2023-01-12T21:25:26.068Z,1.40
2023-01-12T21:27:53.177Z,0.82
2023-01-12T21:30:20.569Z,0.77
2023-01-12T21:32:48.767Z,0.77
2023-01-12T21:35:15.944Z,0.88
2023-01-12T21:37:42.945Z,1.05
2023-01-12T21:40:10.573Z,1.30
2023-01-12T21:43:00.814Z,1.13
2023-01-12T21:45:28.035Z,1.20
2023-01-12T21:47:55.467Z,1.30
2023-01-12T21:50:23.186Z,1.65
2023-01-12T21:52:50.118Z,1.40
2023-01-12T21:55:19.438Z,1.52
2023-01-12T21:57:47.849Z,1.08
2023-01-12T22:00:15.749Z,1.60
2023-01-12T22:02:43.400Z,1.85
2023-01-12T22:05:11.171Z,1.20
2023-01-12T22:07:38.087Z,1.33
2023-01-12T22:10:20.997Z,1.20
2023-01-12T22:12:50.759Z,1.30
2023-01-12T22:15:18.299Z,1.95
2023-01-12T22:17:45.331Z,0.90
2023-01-12T22:20:13.213Z,1.45
2023-01-12T22:22:41.222Z,1.50
2023-01-12T22:25:09.869Z,1.75
2023-01-12T22:27:37.396Z,1.55
2023-01-12T22:30:06.153Z,1.50
2023-01-12T22:32:40.119Z,1.45
2023-01-12T22:35:10.452Z,2.88
2023-01-12T22:37:38.945Z,2.03
2023-01-12T22:40:08.088Z,1.55
2023-01-12T22:42:53.469Z,2.08
2023-01-12T22:45:21.707Z,1.00
2023-01-12T22:47:56.534Z,1.35
2023-01-12T22:50:24.406Z,1.40
2023-01-12T22:52:52.540Z,1.80
2023-01-12T22:55:23.365Z,1.42
2023-01-12T22:57:50.636Z,1.15
2023-01-12T23:00:19.025Z,1.48
2023-01-12T23:03:01.917Z,1.77
2023-01-12T23:05:37.630Z,1.80
2023-01-12T23:08:06.601Z,1.77
2023-01-12T23:10:33.951Z,1.30
2023-01-12T23:13:20.483Z,1.40
2023-01-12T23:15:58.076Z,1.85
2023-01-12T23:18:28.841Z,1.65
2023-01-12T23:21:24.788Z,1.50
2023-01-12T23:23:54.255Z,1.52
2023-01-12T23:26:30.941Z,1.02
2023-01-12T23:29:00.493Z,1.30
2023-01-12T23:31:30.090Z,2.00
2023-01-12T23:33:57.269Z,1.77
2023-01-12T23:36:26.441Z,1.48
2023-01-12T23:39:01.674Z,1.20
2023-01-12T23:41:30.160Z,1.92
2023-01-12T23:43:59.463Z,1.67
2023-01-12T23:46:28.148Z,1.55
2023-01-12T23:48:56.942Z,1.52
2023-01-12T23:51:25.633Z,2.08
2023-01-12T23:54:00.096Z,1.70
2023-01-12T23:56:29.389Z,1.00
2023-01-12T23:58:56.729Z,1.35
